Treynor, Iowa
Current Conditions -  °F | °C
As of 9:15 PM on Sunday 21 Dec 2014 (Local Time) from KCBF Reporting Station
Haze Haze  
Wind Chill: 33°   Ceiling: 300
Heat Index: 41°   Visibility: 2.5mi
Dew Point: 41°   Wind: 16mph
Humidity: 100%   Direction: 160°SSE
Pressure: 29.65"   Gusts: 25mph
Location:  41.23°N, 95.61°W
Report Text: KCBF 220315Z AUTO 16014G22KT 2 1/2SM BR OVC003 05/05 A2965 RMK AO2
Loading
Personal Weather Stations






























Interactive Weather Map New forecast layout! Learn more

10-Day Weather Forecast

Advertisements
Track Severe Weather on mobile